Time;durP1;ratioP1;P1;durP2;ratioP2;P2;SDS_P1;SDS_P2;PMS_P1;PMS_P2;Temp;Humidity;BMP_temperature;BMP_pressure;BME280_temperature;BME280_humidity;BME280_pressure;Samples;Min_cycle;Max_cycle;Signal;HPM_P1;HPM_P2
2021/09/19 00:00:45;;;;;;;10.38;1.30;;;;;;;;;;5066010;28;20028;-77
2021/09/19 00:03:11;;;;;;;6.38;1.23;;;;;;;;;;5073592;28;20108;-78
2021/09/19 00:05:36;;;;;;;6.05;1.15;;;;;;;;;;5066252;28;20133;-78
2021/09/19 00:08:02;;;;;;;3.75;0.82;;;;;;;;;;5063720;28;20056;-77
2021/09/19 00:10:28;;;;;;;7.50;1.10;;;;;;;;;;5065548;28;20028;-77
2021/09/19 00:12:53;;;;;;;5.97;1.10;;;;;;;;;;5065069;28;20070;-77
2021/09/19 00:15:19;;;;;;;4.38;1.08;;;;;;;;;;5066243;28;20082;-79
2021/09/19 00:17:46;;;;;;;2.95;0.93;;;;;;;;;;5064585;28;20056;-78
2021/09/19 00:20:12;;;;;;;4.10;0.88;;;;;;;;;;5065326;28;20127;-77
2021/09/19 00:22:38;;;;;;;4.65;1.00;;;;;;;;;;5068904;28;20791;-77
2021/09/19 00:25:06;;;;;;;3.53;1.00;;;;;;;;;;5082621;28;20033;-78
2021/09/19 00:27:32;;;;;;;8.48;1.05;;;;;;;;;;5067274;28;20442;-77
2021/09/19 00:29:57;;;;;;;8.05;1.08;;;;;;;;;;5065570;28;20055;-77
2021/09/19 00:32:23;;;;;;;6.28;1.48;;;;;;;;;;5065200;28;20101;-77
2021/09/19 00:34:48;;;;;;;3.28;1.17;;;;;;;;;;5066168;28;20039;-77
2021/09/19 00:37:14;;;;;;;7.22;1.63;;;;;;;;;;5066270;28;20029;-77
2021/09/19 00:39:39;;;;;;;3.70;0.82;;;;;;;;;;5064986;28;20028;-77
2021/09/19 00:42:05;;;;;;;6.72;0.80;;;;;;;;;;5062145;28;20044;-77
2021/09/19 00:44:30;;;;;;;7.50;1.35;;;;;;;;;;5081660;28;20742;-78
2021/09/19 00:46:56;;;;;;;8.10;0.80;;;;;;;;;;5067548;28;20570;-77
2021/09/19 00:49:23;;;;;;;4.97;0.85;;;;;;;;;;5059140;28;20025;-77
2021/09/19 00:51:48;;;;;;;4.75;0.80;;;;;;;;;;5064605;28;20024;-77
2021/09/19 00:54:15;;;;;;;11.18;1.45;;;;;;;;;;5047777;28;20482;-77
2021/09/19 00:56:43;;;;;;;6.00;0.90;;;;;;;;;;5066300;28;20057;-77
2021/09/19 00:59:09;;;;;;;4.25;0.85;;;;;;;;;;5064776;28;20047;-77
2021/09/19 01:01:35;;;;;;;6.13;1.10;;;;;;;;;;5063728;28;20030;-78
2021/09/19 01:04:04;;;;;;;7.10;1.20;;;;;;;;;;5042815;28;20036;-77
2021/09/19 01:06:30;;;;;;;4.93;1.15;;;;;;;;;;5079484;28;20028;-77
2021/09/19 01:08:56;;;;;;;10.73;1.10;;;;;;;;;;5065278;28;20020;-78
2021/09/19 01:11:22;;;;;;;5.13;1.02;;;;;;;;;;5081603;28;20040;-78
2021/09/19 01:13:49;;;;;;;6.10;1.25;;;;;;;;;;5081561;28;20038;-77
2021/09/19 01:16:17;;;;;;;6.60;1.27;;;;;;;;;;5079901;28;20037;-77
2021/09/19 01:18:44;;;;;;;4.22;1.20;;;;;;;;;;5066915;28;20032;-77
2021/09/19 01:21:11;;;;;;;3.58;1.30;;;;;;;;;;5064310;28;20063;-77
2021/09/19 01:23:37;;;;;;;7.78;1.42;;;;;;;;;;5064168;28;20112;-76
2021/09/19 01:26:04;;;;;;;8.30;1.27;;;;;;;;;;5065585;28;20052;-78
2021/09/19 01:28:30;;;;;;;8.23;1.50;;;;;;;;;;5066940;28;20021;-77
2021/09/19 01:30:56;;;;;;;4.85;1.17;;;;;;;;;;5063856;28;20405;-77
2021/09/19 01:33:22;;;;;;;3.72;1.00;;;;;;;;;;5065298;28;20040;-77
2021/09/19 01:35:47;;;;;;;5.50;1.00;;;;;;;;;;5063560;28;20066;-77
2021/09/19 01:38:13;;;;;;;5.88;1.20;;;;;;;;;;5065923;28;20286;-78
2021/09/19 01:40:38;;;;;;;5.28;1.27;;;;;;;;;;5065653;28;20032;-77
2021/09/19 01:43:04;;;;;;;4.10;0.90;;;;;;;;;;5063730;28;20084;-77
2021/09/19 01:45:30;;;;;;;10.77;1.40;;;;;;;;;;5063558;28;20062;-77
2021/09/19 01:47:56;;;;;;;3.25;0.98;;;;;;;;;;5065172;28;20484;-78
2021/09/19 01:50:23;;;;;;;6.22;1.38;;;;;;;;;;5081667;28;20584;-77
2021/09/19 01:52:49;;;;;;;17.85;2.17;;;;;;;;;;5063946;28;20028;-76
2021/09/19 01:55:15;;;;;;;5.30;0.95;;;;;;;;;;5066903;28;20032;-77
2021/09/19 01:57:41;;;;;;;4.97;1.17;;;;;;;;;;5058990;28;20433;-77
2021/09/19 02:00:08;;;;;;;3.58;0.65;;;;;;;;;;5065117;28;20028;-78
2021/09/19 02:02:35;;;;;;;4.30;0.73;;;;;;;;;;5066903;28;20036;-77
2021/09/19 02:05:01;;;;;;;4.18;0.73;;;;;;;;;;5062774;28;20038;-78
2021/09/19 02:07:26;;;;;;;4.15;0.82;;;;;;;;;;5065224;28;20056;-77
2021/09/19 02:09:52;;;;;;;4.05;0.88;;;;;;;;;;5062610;28;20029;-77
2021/09/19 02:12:18;;;;;;;10.70;1.15;;;;;;;;;;5064020;28;20046;-77
2021/09/19 02:14:43;;;;;;;4.35;0.55;;;;;;;;;;5079689;28;20040;-77
2021/09/19 02:17:13;;;;;;;4.93;1.00;;;;;;;;;;5061612;28;20025;-77
2021/09/19 02:19:39;;;;;;;7.20;1.27;;;;;;;;;;5062648;28;20020;-77
2021/09/19 02:22:10;;;;;;;3.70;1.55;;;;;;;;;;5062844;28;20040;-77
2021/09/19 02:24:35;;;;;;;4.60;0.93;;;;;;;;;;5061583;28;20028;-77
2021/09/19 02:27:01;;;;;;;6.78;1.02;;;;;;;;;;5063672;28;21542;-78
2021/09/19 02:29:27;;;;;;;6.82;0.90;;;;;;;;;;5065589;28;20028;-76
2021/09/19 02:31:52;;;;;;;3.95;0.65;;;;;;;;;;5063344;28;20037;-77
2021/09/19 02:34:18;;;;;;;4.20;0.73;;;;;;;;;;5061677;28;20036;-76
2021/09/19 02:36:43;;;;;;;7.32;1.02;;;;;;;;;;5063591;28;20032;-76
2021/09/19 02:39:09;;;;;;;3.50;0.70;;;;;;;;;;5059472;28;20037;-77
2021/09/19 02:41:36;;;;;;;3.67;1.00;;;;;;;;;;5047208;28;20569;-77
2021/09/19 02:44:03;;;;;;;5.00;0.90;;;;;;;;;;5081813;28;20043;-78
2021/09/19 02:46:28;;;;;;;10.80;1.40;;;;;;;;;;5063123;28;20029;-78
2021/09/19 02:48:54;;;;;;;6.32;1.40;;;;;;;;;;5077112;28;20055;-78
2021/09/19 02:51:19;;;;;;;4.97;0.80;;;;;;;;;;5060726;28;20107;-78
2021/09/19 02:53:45;;;;;;;2.53;0.95;;;;;;;;;;5064100;28;20032;-78
2021/09/19 02:56:11;;;;;;;7.63;0.85;;;;;;;;;;5064873;28;20032;-78
2021/09/19 02:58:37;;;;;;;8.20;1.88;;;;;;;;;;5061888;28;20040;-78
2021/09/19 03:01:03;;;;;;;5.28;0.70;;;;;;;;;;5065490;28;20032;-78
2021/09/19 03:03:29;;;;;;;3.45;0.65;;;;;;;;;;5066208;28;20116;-78
2021/09/19 03:05:55;;;;;;;3.70;1.13;;;;;;;;;;5062471;28;20115;-78
2021/09/19 03:08:20;;;;;;;5.38;1.00;;;;;;;;;;5064503;28;20031;-78
2021/09/19 03:10:46;;;;;;;14.10;1.33;;;;;;;;;;5065861;28;20587;-79
2021/09/19 03:13:11;;;;;;;12.52;1.23;;;;;;;;;;5065069;28;20029;-78
2021/09/19 03:15:37;;;;;;;4.10;0.93;;;;;;;;;;5065393;28;20382;-78
2021/09/19 03:18:02;;;;;;;5.85;1.23;;;;;;;;;;5044953;28;20040;-80
2021/09/19 03:20:27;;;;;;;3.10;0.85;;;;;;;;;;5060958;28;20405;-80
2021/09/19 03:22:53;;;;;;;8.98;1.40;;;;;;;;;;5063566;28;20486;-80
2021/09/19 03:25:18;;;;;;;6.25;1.10;;;;;;;;;;5064040;28;20457;-80
2021/09/19 03:27:44;;;;;;;3.28;0.90;;;;;;;;;;5061490;28;20032;-80
2021/09/19 03:30:12;;;;;;;4.00;0.77;;;;;;;;;;5062468;28;20520;-81
2021/09/19 03:32:38;;;;;;;5.60;0.80;;;;;;;;;;5064540;28;20119;-80
2021/09/19 03:35:04;;;;;;;4.03;0.80;;;;;;;;;;5063502;28;20041;-80
2021/09/19 03:37:30;;;;;;;2.45;0.90;;;;;;;;;;5080302;28;20032;-80
2021/09/19 03:39:55;;;;;;;2.88;0.63;;;;;;;;;;5067381;28;20477;-80
2021/09/19 03:42:21;;;;;;;2.22;0.80;;;;;;;;;;5083524;28;20032;-80
2021/09/19 03:44:47;;;;;;;5.45;1.15;;;;;;;;;;5066130;28;20485;-80
2021/09/19 03:47:12;;;;;;;4.38;1.00;;;;;;;;;;5068288;28;20035;-81
2021/09/19 03:49:38;;;;;;;3.72;0.77;;;;;;;;;;5081881;28;20558;-80
2021/09/19 03:52:03;;;;;;;7.40;1.38;;;;;;;;;;5069770;28;20086;-81
2021/09/19 03:54:29;;;;;;;3.33;1.02;;;;;;;;;;5067241;28;20565;-80
2021/09/19 03:56:54;;;;;;;6.63;1.30;;;;;;;;;;5082246;28;20117;-80
2021/09/19 03:59:20;;;;;;;5.15;1.60;;;;;;;;;;5066436;28;20044;-80
2021/09/19 04:01:45;;;;;;;4.15;0.80;;;;;;;;;;5067398;28;20037;-80
2021/09/19 04:04:11;;;;;;;4.68;1.20;;;;;;;;;;5067317;28;20050;-81
2021/09/19 04:06:36;;;;;;;5.50;1.02;;;;;;;;;;5067684;28;20763;-80
2021/09/19 04:09:02;;;;;;;6.47;1.10;;;;;;;;;;5065677;28;20040;-80
2021/09/19 04:11:27;;;;;;;5.90;1.58;;;;;;;;;;5069030;28;20037;-80
2021/09/19 04:13:53;;;;;;;2.17;0.93;;;;;;;;;;5082930;28;20040;-79
2021/09/19 04:16:18;;;;;;;2.85;1.10;;;;;;;;;;5062673;28;20035;-81
2021/09/19 04:18:44;;;;;;;3.40;1.02;;;;;;;;;;5067564;28;20673;-81
2021/09/19 04:21:09;;;;;;;5.55;1.30;;;;;;;;;;5080558;28;20024;-80
2021/09/19 04:23:35;;;;;;;4.55;1.25;;;;;;;;;;5063024;28;20032;-80
2021/09/19 04:26:00;;;;;;;3.63;1.42;;;;;;;;;;5083125;28;20521;-79
2021/09/19 04:28:26;;;;;;;6.25;1.88;;;;;;;;;;5066720;28;20028;-80
2021/09/19 04:30:51;;;;;;;4.78;2.05;;;;;;;;;;5068272;28;20119;-80
2021/09/19 04:33:17;;;;;;;6.50;2.97;;;;;;;;;;5065954;28;20432;-79
2021/09/19 04:35:42;;;;;;;11.65;3.85;;;;;;;;;;5065211;28;20032;-81
2021/09/19 04:38:08;;;;;;;6.35;3.80;;;;;;;;;;5063948;28;20349;-80
2021/09/19 04:40:33;;;;;;;11.48;3.83;;;;;;;;;;5065982;28;20036;-79
2021/09/19 04:42:59;;;;;;;9.93;4.28;;;;;;;;;;5064632;28;20067;-80
2021/09/19 04:45:25;;;;;;;6.35;3.50;;;;;;;;;;5064408;28;20039;-80
2021/09/19 04:47:50;;;;;;;6.85;3.53;;;;;;;;;;5067115;28;20109;-80
2021/09/19 04:50:16;;;;;;;9.23;3.85;;;;;;;;;;5067833;28;20078;-80
2021/09/19 04:52:42;;;;;;;8.23;4.00;;;;;;;;;;5067472;28;20035;-81
2021/09/19 04:55:08;;;;;;;8.68;3.42;;;;;;;;;;5064452;28;20509;-80
2021/09/19 04:57:34;;;;;;;5.93;3.25;;;;;;;;;;5068537;28;20097;-80
2021/09/19 05:00:00;;;;;;;6.55;3.05;;;;;;;;;;5066938;28;20091;-79
2021/09/19 05:02:26;;;;;;;4.90;3.22;;;;;;;;;;5064387;28;20405;-78
2021/09/19 05:04:51;;;;;;;7.35;3.05;;;;;;;;;;5082069;28;20132;-77
2021/09/19 05:07:16;;;;;;;8.30;2.90;;;;;;;;;;5061362;28;20040;-78
2021/09/19 05:09:42;;;;;;;5.93;2.80;;;;;;;;;;5065441;28;20481;-78
2021/09/19 05:12:08;;;;;;;9.73;2.92;;;;;;;;;;5067739;28;20024;-78
2021/09/19 05:14:33;;;;;;;6.65;3.15;;;;;;;;;;5055349;28;20043;-78
2021/09/19 05:16:59;;;;;;;6.53;2.58;;;;;;;;;;5062895;28;20027;-77
2021/09/19 05:19:24;;;;;;;8.20;2.63;;;;;;;;;;5064118;28;20773;-79
2021/09/19 05:21:50;;;;;;;13.82;2.90;;;;;;;;;;5065439;28;20493;-78
2021/09/19 05:24:15;;;;;;;9.77;3.50;;;;;;;;;;5057618;28;20087;-79
2021/09/19 05:26:41;;;;;;;12.63;3.92;;;;;;;;;;5049998;28;20044;-78
2021/09/19 05:29:06;;;;;;;18.75;4.65;;;;;;;;;;5064488;28;20577;-78
2021/09/19 05:31:32;;;;;;;6.38;3.47;;;;;;;;;;5059294;28;20033;-78
2021/09/19 05:33:58;;;;;;;10.43;3.50;;;;;;;;;;5065252;28;20056;-78
2021/09/19 05:36:23;;;;;;;11.13;4.65;;;;;;;;;;5066691;28;20032;-78
2021/09/19 05:38:49;;;;;;;14.13;4.68;;;;;;;;;;5049191;28;20040;-79
2021/09/19 05:41:14;;;;;;;7.22;4.00;;;;;;;;;;5064648;28;20806;-79
2021/09/19 05:43:40;;;;;;;11.43;3.55;;;;;;;;;;5048700;28;20039;-78
2021/09/19 05:46:05;;;;;;;14.07;3.65;;;;;;;;;;5065228;28;20113;-78
2021/09/19 05:48:31;;;;;;;7.28;2.95;;;;;;;;;;5063509;28;20099;-78
2021/09/19 05:50:56;;;;;;;6.70;2.60;;;;;;;;;;5063286;28;20024;-78
2021/09/19 05:53:22;;;;;;;10.88;2.70;;;;;;;;;;5061569;28;20075;-78
2021/09/19 05:55:47;;;;;;;7.65;2.53;;;;;;;;;;5064065;28;20033;-78
2021/09/19 05:58:13;;;;;;;9.93;2.33;;;;;;;;;;5061038;28;20043;-78
2021/09/19 06:00:39;;;;;;;7.65;2.70;;;;;;;;;;5066244;28;20032;-77
2021/09/19 06:03:04;;;;;;;13.40;2.53;;;;;;;;;;5062190;28;20789;-78
2021/09/19 06:05:30;;;;;;;9.63;2.53;;;;;;;;;;5063191;28;20142;-78
2021/09/19 06:07:55;;;;;;;14.13;2.63;;;;;;;;;;5060472;28;20641;-77
2021/09/19 06:10:21;;;;;;;13.40;2.22;;;;;;;;;;5065309;28;20044;-78
2021/09/19 06:12:47;;;;;;;5.65;1.42;;;;;;;;;;5062934;28;20754;-78
2021/09/19 06:15:12;;;;;;;13.45;2.05;;;;;;;;;;5080566;28;20040;-79
2021/09/19 06:17:38;;;;;;;7.68;1.80;;;;;;;;;;5078054;28;20035;-78
2021/09/19 06:20:04;;;;;;;14.60;2.13;;;;;;;;;;5066273;28;20036;-78
2021/09/19 06:22:29;;;;;;;13.82;2.83;;;;;;;;;;5064715;28;20029;-78
2021/09/19 06:24:55;;;;;;;13.00;2.13;;;;;;;;;;5064367;28;20536;-77
2021/09/19 06:27:21;;;;;;;8.30;2.20;;;;;;;;;;5062795;28;20044;-78
2021/09/19 06:29:47;;;;;;;13.63;2.28;;;;;;;;;;5063917;28;20528;-78
2021/09/19 06:32:12;;;;;;;11.50;3.35;;;;;;;;;;5044457;28;20068;-79
2021/09/19 06:34:39;;;;;;;11.13;3.67;;;;;;;;;;5065467;28;20538;-78
2021/09/19 06:37:05;;;;;;;13.35;2.65;;;;;;;;;;5065432;28;20115;-78
2021/09/19 06:39:31;;;;;;;12.75;2.90;;;;;;;;;;5061950;28;20033;-78
2021/09/19 06:41:57;;;;;;;10.45;3.22;;;;;;;;;;5064990;28;20025;-78
2021/09/19 06:44:22;;;;;;;12.35;3.30;;;;;;;;;;5065051;28;20032;-78
2021/09/19 06:46:48;;;;;;;11.13;3.28;;;;;;;;;;5059206;28;20033;-78
2021/09/19 06:49:13;;;;;;;15.15;3.60;;;;;;;;;;5063741;28;20024;-79
2021/09/19 06:51:39;;;;;;;18.88;4.68;;;;;;;;;;5064344;28;20028;-78
2021/09/19 06:54:04;;;;;;;9.90;2.95;;;;;;;;;;5064640;28;20094;-77
2021/09/19 06:56:30;;;;;;;12.90;3.65;;;;;;;;;;5042942;28;20039;-79
2021/09/19 06:58:56;;;;;;;13.80;2.40;;;;;;;;;;5061078;28;20020;-78
2021/09/19 07:01:23;;;;;;;5.38;2.00;;;;;;;;;;5065238;28;20044;-77
2021/09/19 07:03:49;;;;;;;13.88;3.05;;;;;;;;;;5063460;28;20040;-78
2021/09/19 07:06:16;;;;;;;13.55;2.78;;;;;;;;;;5061465;28;20081;-77
2021/09/19 07:08:42;;;;;;;9.27;3.00;;;;;;;;;;5079103;28;20560;-77
2021/09/19 07:11:07;;;;;;;16.60;3.45;;;;;;;;;;5060322;28;20059;-78
2021/09/19 07:13:33;;;;;;;13.23;3.38;;;;;;;;;;5084555;28;20032;-76
2021/09/19 07:15:58;;;;;;;14.82;3.17;;;;;;;;;;5067809;28;20031;-77
2021/09/19 07:18:24;;;;;;;12.30;2.47;;;;;;;;;;5065336;28;20033;-78
2021/09/19 07:20:53;;;;;;;9.23;2.58;;;;;;;;;;5079574;28;20028;-77
2021/09/19 07:23:18;;;;;;;9.35;2.60;;;;;;;;;;5065403;28;20033;-77
2021/09/19 07:25:44;;;;;;;8.88;2.42;;;;;;;;;;5079576;28;20039;-77
2021/09/19 07:28:10;;;;;;;14.05;2.78;;;;;;;;;;5065991;28;20097;-77
2021/09/19 07:30:35;;;;;;;12.65;3.33;;;;;;;;;;5077945;28;20573;-77
2021/09/19 07:33:02;;;;;;;5.85;2.13;;;;;;;;;;5063617;28;20036;-77
2021/09/19 07:35:28;;;;;;;14.45;2.35;;;;;;;;;;5063233;28;20782;-77
2021/09/19 07:37:54;;;;;;;10.15;2.40;;;;;;;;;;5064593;28;20021;-77
2021/09/19 07:40:20;;;;;;;17.85;3.75;;;;;;;;;;5062823;28;20025;-77
2021/09/19 07:42:46;;;;;;;7.25;2.45;;;;;;;;;;5064956;28;20025;-77
2021/09/19 07:45:13;;;;;;;7.22;1.90;;;;;;;;;;5063986;28;20719;-78
2021/09/19 07:47:38;;;;;;;6.90;2.20;;;;;;;;;;5067167;28;20029;-77
2021/09/19 07:50:06;;;;;;;12.85;2.40;;;;;;;;;;5066199;28;20521;-78
2021/09/19 07:52:32;;;;;;;10.57;2.38;;;;;;;;;;5068784;28;20588;-78
2021/09/19 07:54:57;;;;;;;6.03;2.08;;;;;;;;;;5076329;28;20064;-78
2021/09/19 07:57:26;;;;;;;12.20;2.40;;;;;;;;;;5065122;28;20028;-77
2021/09/19 07:59:53;;;;;;;8.60;2.10;;;;;;;;;;5061975;28;20028;-77
2021/09/19 08:02:19;;;;;;;11.52;2.13;;;;;;;;;;5064373;28;20665;-77
2021/09/19 08:04:45;;;;;;;11.50;2.22;;;;;;;;;;5066719;28;20028;-77
2021/09/19 08:07:10;;;;;;;14.80;2.63;;;;;;;;;;5063863;28;20501;-77
2021/09/19 08:09:36;;;;;;;12.13;2.33;;;;;;;;;;5067088;28;20631;-77
2021/09/19 08:12:02;;;;;;;9.68;2.03;;;;;;;;;;5059544;28;20036;-78
2021/09/19 08:14:28;;;;;;;13.23;2.30;;;;;;;;;;5057734;28;20025;-78
2021/09/19 08:16:57;;;;;;;14.73;2.33;;;;;;;;;;5079195;28;20029;-77
2021/09/19 08:19:24;;;;;;;11.15;2.25;;;;;;;;;;5064802;28;20032;-78
2021/09/19 08:21:50;;;;;;;10.80;2.45;;;;;;;;;;5064395;28;20021;-78
2021/09/19 08:24:16;;;;;;;12.63;2.97;;;;;;;;;;5055741;28;20040;-78
2021/09/19 08:26:42;;;;;;;6.78;2.28;;;;;;;;;;5065337;28;20514;-78
2021/09/19 08:29:09;;;;;;;10.95;2.95;;;;;;;;;;5079918;28;20032;-78
2021/09/19 08:31:35;;;;;;;7.95;3.15;;;;;;;;;;5062964;28;20037;-77
2021/09/19 08:34:01;;;;;;;21.80;3.95;;;;;;;;;;5068273;28;20607;-79
2021/09/19 08:36:26;;;;;;;12.25;2.97;;;;;;;;;;5063738;28;20029;-78
2021/09/19 08:38:53;;;;;;;11.50;2.53;;;;;;;;;;5069356;28;20039;-78
2021/09/19 08:41:20;;;;;;;13.82;3.50;;;;;;;;;;5081815;28;20136;-77
2021/09/19 08:43:47;;;;;;;14.70;2.60;;;;;;;;;;5064664;28;20037;-78
2021/09/19 08:46:15;;;;;;;8.13;2.47;;;;;;;;;;5066341;28;20392;-78
2021/09/19 08:48:41;;;;;;;14.70;2.70;;;;;;;;;;5066914;28;20037;-79
2021/09/19 08:51:14;;;;;;;7.40;1.95;;;;;;;;;;5067663;28;20046;-77
2021/09/19 08:53:40;;;;;;;7.30;1.20;;;;;;;;;;5064858;28;20070;-77
2021/09/19 08:56:07;;;;;;;7.47;1.67;;;;;;;;;;5068633;28;20052;-77
2021/09/19 08:58:32;;;;;;;7.80;1.38;;;;;;;;;;5063753;28;20489;-78
2021/09/19 09:00:59;;;;;;;7.97;1.40;;;;;;;;;;5081152;28;20086;-79
2021/09/19 09:03:28;;;;;;;9.02;1.63;;;;;;;;;;5059765;28;20040;-79
2021/09/19 09:05:54;;;;;;;6.25;1.23;;;;;;;;;;5068014;28;20033;-79
2021/09/19 09:08:20;;;;;;;17.90;1.60;;;;;;;;;;5066113;28;20036;-79
2021/09/19 09:10:48;;;;;;;9.23;1.15;;;;;;;;;;5066959;28;20081;-78
2021/09/19 09:13:31;;;;;;;4.95;0.90;;;;;;;;;;5080722;28;20029;-79
2021/09/19 09:16:11;;;;;;;10.57;1.52;;;;;;;;;;5066065;28;20112;-80
2021/09/19 09:18:45;;;;;;;7.82;1.05;;;;;;;;;;5064101;28;20033;-80
2021/09/19 09:21:23;;;;;;;8.27;1.20;;;;;;;;;;5063678;28;20036;-79
2021/09/19 09:24:00;;;;;;;8.35;1.10;;;;;;;;;;5068122;28;20029;-80
2021/09/19 09:26:38;;;;;;;7.43;0.90;;;;;;;;;;5064219;28;20076;-79
2021/09/19 09:29:06;;;;;;;8.57;0.95;;;;;;;;;;5060554;28;20181;-78
2021/09/19 09:31:47;;;;;;;14.55;0.93;;;;;;;;;;5061702;28;20025;-79
2021/09/19 09:34:23;;;;;;;6.32;0.60;;;;;;;;;;5062990;28;20055;-79
2021/09/19 09:36:55;;;;;;;8.02;1.00;;;;;;;;;;5066731;28;20099;-79
2021/09/19 09:39:34;;;;;;;10.43;0.70;;;;;;;;;;5061781;28;20051;-78
2021/09/19 09:42:02;;;;;;;10.10;0.88;;;;;;;;;;5063498;28;20127;-77
2021/09/19 09:44:32;;;;;;;6.30;1.10;;;;;;;;;;5071331;28;20029;-78
2021/09/19 09:47:00;;;;;;;7.45;0.63;;;;;;;;;;5066395;28;20028;-78
2021/09/19 09:49:58;;;;;;;8.50;0.75;;;;;;;;;;5080960;28;20625;-79
2021/09/19 09:52:35;;;;;;;14.20;2.85;;;;;;;;;;5081235;28;20036;-78
2021/09/19 09:55:04;;;;;;;10.23;1.00;;;;;;;;;;5078715;28;20524;-78
2021/09/19 09:57:36;;;;;;;8.55;1.15;;;;;;;;;;5065005;28;20040;-78
2021/09/19 10:00:13;;;;;;;12.57;1.20;;;;;;;;;;5067525;28;20024;-79
2021/09/19 10:02:42;;;;;;;9.32;0.70;;;;;;;;;;5063312;28;20120;-78
2021/09/19 10:05:11;;;;;;;6.40;1.30;;;;;;;;;;5065014;28;20028;-79
2021/09/19 10:07:39;;;;;;;11.43;1.25;;;;;;;;;;5063726;28;20115;-79
2021/09/19 10:10:07;;;;;;;3.67;0.80;;;;;;;;;;5063133;28;20029;-78
2021/09/19 10:12:33;;;;;;;13.07;1.30;;;;;;;;;;5067281;28;20032;-78
2021/09/19 10:14:58;;;;;;;9.95;1.13;;;;;;;;;;5064899;28;20028;-79
2021/09/19 10:17:27;;;;;;;8.88;1.30;;;;;;;;;;5058918;28;20051;-78
2021/09/19 10:19:54;;;;;;;11.70;1.10;;;;;;;;;;5080465;28;20494;-78
2021/09/19 10:22:35;;;;;;;13.23;1.30;;;;;;;;;;5066594;28;20036;-78
2021/09/19 10:25:01;;;;;;;6.70;0.95;;;;;;;;;;5065648;28;20111;-78
2021/09/19 10:27:34;;;;;;;10.55;1.25;;;;;;;;;;5055077;28;20047;-79
2021/09/19 10:30:02;;;;;;;8.73;1.40;;;;;;;;;;5083990;28;20056;-78
2021/09/19 10:32:45;;;;;;;6.63;1.23;;;;;;;;;;5060687;28;20398;-79
2021/09/19 10:35:15;;;;;;;5.35;1.13;;;;;;;;;;5059077;28;20131;-77
2021/09/19 10:38:06;;;;;;;9.38;1.33;;;;;;;;;;5062487;28;20607;-80
2021/09/19 10:40:41;;;;;;;7.00;1.33;;;;;;;;;;5063589;28;20056;-79
2021/09/19 10:43:08;;;;;;;8.75;1.33;;;;;;;;;;5063920;28;20303;-77
2021/09/19 10:45:45;;;;;;;8.23;1.33;;;;;;;;;;5062027;28;20033;-78
2021/09/19 10:48:13;;;;;;;5.10;1.05;;;;;;;;;;5067213;28;20090;-77
2021/09/19 10:50:39;;;;;;;6.75;1.10;;;;;;;;;;5064376;28;20433;-78
2021/09/19 10:53:26;;;;;;;5.30;1.13;;;;;;;;;;5084712;28;20032;-77
2021/09/19 10:56:01;;;;;;;12.07;1.20;;;;;;;;;;5068487;28;20037;-77
2021/09/19 10:58:37;;;;;;;11.57;0.90;;;;;;;;;;5084054;28;20111;-77
2021/09/19 11:01:24;;;;;;;5.40;1.20;;;;;;;;;;5065856;28;20032;-78
2021/09/19 11:03:58;;;;;;;7.82;1.17;;;;;;;;;;5069353;28;20036;-78
2021/09/19 11:06:34;;;;;;;5.60;0.88;;;;;;;;;;5069803;28;20029;-78
2021/09/19 11:09:23;;;;;;;8.15;1.13;;;;;;;;;;5067580;28;20456;-77
2021/09/19 11:12:10;;;;;;;11.32;1.20;;;;;;;;;;5071094;28;20036;-77
2021/09/19 11:15:00;;;;;;;11.25;1.02;;;;;;;;;;5067919;28;21332;-76
2021/09/19 11:17:27;;;;;;;9.30;1.15;;;;;;;;;;5065256;28;20021;-77
2021/09/19 11:20:14;;;;;;;6.93;1.30;;;;;;;;;;5075824;28;20033;-76
2021/09/19 11:22:57;;;;;;;9.00;0.98;;;;;;;;;;5068067;28;20032;-76
2021/09/19 11:25:22;;;;;;;6.45;1.20;;;;;;;;;;5070401;28;20032;-77
2021/09/19 11:27:51;;;;;;;11.07;0.93;;;;;;;;;;5065887;28;20139;-79
2021/09/19 11:30:21;;;;;;;11.45;1.50;;;;;;;;;;5066085;28;20089;-77
2021/09/19 11:32:48;;;;;;;5.15;0.90;;;;;;;;;;5067198;28;20038;-80
2021/09/19 11:35:13;;;;;;;9.35;0.93;;;;;;;;;;5065029;28;20345;-77
2021/09/19 11:37:39;;;;;;;10.15;1.13;;;;;;;;;;5051838;28;20040;-78
2021/09/19 11:40:09;;;;;;;4.93;0.90;;;;;;;;;;5066572;28;20036;-79
2021/09/19 11:43:02;;;;;;;5.20;0.77;;;;;;;;;;5067339;28;20024;-77
2021/09/19 11:45:29;;;;;;;10.27;1.17;;;;;;;;;;5069497;28;20113;-76
2021/09/19 11:47:55;;;;;;;7.95;0.82;;;;;;;;;;5067459;28;20104;-77
2021/09/19 11:50:24;;;;;;;11.27;1.55;;;;;;;;;;5065454;28;20128;-77
2021/09/19 11:52:53;;;;;;;9.73;1.35;;;;;;;;;;5069531;28;20028;-77
2021/09/19 11:55:20;;;;;;;13.35;1.52;;;;;;;;;;5070476;28;20032;-77
2021/09/19 11:57:46;;;;;;;10.20;0.75;;;;;;;;;;5077571;28;20393;-76
2021/09/19 12:00:12;;;;;;;6.10;0.98;;;;;;;;;;5067555;28;20028;-77
2021/09/19 12:02:39;;;;;;;8.93;1.08;;;;;;;;;;5082047;28;20040;-77
2021/09/19 12:05:06;;;;;;;7.40;1.25;;;;;;;;;;5067662;28;20040;-77
2021/09/19 12:07:32;;;;;;;4.45;0.93;;;;;;;;;;5060751;28;20733;-77
2021/09/19 12:09:57;;;;;;;4.45;0.52;;;;;;;;;;5065480;28;20036;-76
2021/09/19 12:12:23;;;;;;;7.10;0.68;;;;;;;;;;5064311;28;20572;-77
2021/09/19 12:14:51;;;;;;;8.50;0.80;;;;;;;;;;5067843;28;20056;-78
2021/09/19 12:17:26;;;;;;;6.45;1.17;;;;;;;;;;5064996;28;20035;-77
2021/09/19 12:19:59;;;;;;;4.50;0.68;;;;;;;;;;5065883;28;20024;-78
2021/09/19 12:22:25;;;;;;;6.53;0.95;;;;;;;;;;5064767;28;20098;-77
2021/09/19 12:24:53;;;;;;;7.78;0.85;;;;;;;;;;5079352;28;20075;-77
2021/09/19 12:27:25;;;;;;;7.07;0.63;;;;;;;;;;5064493;28;20056;-79
2021/09/19 12:30:14;;;;;;;6.22;0.95;;;;;;;;;;5061314;28;20032;-78
2021/09/19 12:32:51;;;;;;;8.05;0.57;;;;;;;;;;5063189;28;20056;-77
2021/09/19 12:35:25;;;;;;;11.63;1.13;;;;;;;;;;5073009;28;20021;-77
2021/09/19 12:37:51;;;;;;;3.70;0.68;;;;;;;;;;5075153;28;20067;-79
2021/09/19 12:40:20;;;;;;;7.82;1.13;;;;;;;;;;5079739;28;20021;-77
2021/09/19 12:42:47;;;;;;;7.03;1.48;;;;;;;;;;5061877;28;20048;-77
2021/09/19 12:45:15;;;;;;;6.57;1.42;;;;;;;;;;5080386;28;20115;-78
2021/09/19 12:47:41;;;;;;;4.07;0.60;;;;;;;;;;5061280;28;20089;-78
2021/09/19 12:50:12;;;;;;;7.32;1.00;;;;;;;;;;5063216;28;20013;-77
2021/09/19 12:52:38;;;;;;;5.55;1.00;;;;;;;;;;5063802;28;20028;-77
2021/09/19 12:55:06;;;;;;;3.83;0.90;;;;;;;;;;5059742;28;20041;-77
2021/09/19 12:57:33;;;;;;;6.20;0.80;;;;;;;;;;5065604;28;20679;-77
2021/09/19 12:59:59;;;;;;;5.72;0.98;;;;;;;;;;5060008;28;20127;-77
2021/09/19 13:02:25;;;;;;;17.50;1.20;;;;;;;;;;5062358;28;20105;-77
2021/09/19 13:04:51;;;;;;;5.85;0.93;;;;;;;;;;5081227;28;20028;-77
2021/09/19 13:07:18;;;;;;;10.55;1.10;;;;;;;;;;5062650;28;20027;-77
2021/09/19 13:09:45;;;;;;;4.60;0.90;;;;;;;;;;5063057;28;20028;-78
2021/09/19 13:12:11;;;;;;;6.15;1.55;;;;;;;;;;5065335;28;20067;-78
2021/09/19 13:14:38;;;;;;;7.10;0.60;;;;;;;;;;5048872;28;20079;-77
2021/09/19 13:17:04;;;;;;;6.65;0.73;;;;;;;;;;5075962;28;20033;-77
2021/09/19 13:19:30;;;;;;;3.80;0.60;;;;;;;;;;5062571;28;20033;-77
2021/09/19 13:21:56;;;;;;;8.45;1.10;;;;;;;;;;5066926;28;20036;-77
2021/09/19 13:24:21;;;;;;;6.65;0.82;;;;;;;;;;5062951;28;20036;-77
2021/09/19 13:26:49;;;;;;;8.05;0.88;;;;;;;;;;5066247;28;20795;-77
2021/09/19 13:29:16;;;;;;;4.32;0.85;;;;;;;;;;5064926;28;20094;-77
2021/09/19 13:31:43;;;;;;;7.35;1.05;;;;;;;;;;5066818;28;20047;-76
2021/09/19 13:34:09;;;;;;;6.55;0.95;;;;;;;;;;5058056;28;20051;-76
2021/09/19 13:36:34;;;;;;;6.85;0.77;;;;;;;;;;5062155;28;20595;-77
2021/09/19 13:39:00;;;;;;;3.72;0.70;;;;;;;;;;5063770;28;20124;-77
2021/09/19 13:44:38;;;;;;;7.93;0.93;;;;;;;;;;5070151;28;20040;-76
2021/09/19 13:47:05;;;;;;;5.30;1.23;;;;;;;;;;5060151;28;20059;-77
2021/09/19 13:49:31;;;;;;;7.57;0.90;;;;;;;;;;5064859;28;20132;-76
2021/09/19 13:51:59;;;;;;;7.22;0.90;;;;;;;;;;5061143;28;20537;-76
2021/09/19 13:54:24;;;;;;;8.10;0.90;;;;;;;;;;5078952;28;20040;-76
2021/09/19 13:56:50;;;;;;;6.75;0.70;;;;;;;;;;5077983;28;20087;-76
2021/09/19 13:59:23;;;;;;;4.07;0.90;;;;;;;;;;5061322;28;20517;-77
2021/09/19 14:01:53;;;;;;;10.52;1.00;;;;;;;;;;5081217;28;20032;-75
2021/09/19 14:04:24;;;;;;;4.50;0.75;;;;;;;;;;5081190;28;20028;-77
2021/09/19 14:06:50;;;;;;;4.35;0.57;;;;;;;;;;5064938;28;20063;-76
2021/09/19 14:09:16;;;;;;;3.17;0.70;;;;;;;;;;5073010;28;20082;-76
2021/09/19 14:11:41;;;;;;;5.28;0.93;;;;;;;;;;5081099;28;20626;-77
2021/09/19 14:14:08;;;;;;;4.40;0.98;;;;;;;;;;5064296;28;20043;-76
2021/09/19 14:16:35;;;;;;;5.72;1.00;;;;;;;;;;5074398;28;20401;-77
2021/09/19 14:19:04;;;;;;;7.15;0.90;;;;;;;;;;5060005;28;20116;-76
2021/09/19 14:21:31;;;;;;;8.00;1.08;;;;;;;;;;5063362;28;20103;-76
2021/09/19 14:23:57;;;;;;;5.47;1.38;;;;;;;;;;5060987;28;20090;-76
2021/09/19 14:26:23;;;;;;;5.28;0.88;;;;;;;;;;5061695;28;20033;-76
2021/09/19 14:28:48;;;;;;;3.22;0.93;;;;;;;;;;5055494;28;20044;-77
2021/09/19 14:31:14;;;;;;;5.40;1.10;;;;;;;;;;5080516;28;20036;-76
2021/09/19 14:33:40;;;;;;;6.57;1.00;;;;;;;;;;5081246;28;20036;-77
2021/09/19 14:36:06;;;;;;;4.93;0.85;;;;;;;;;;5058951;28;20040;-76
2021/09/19 14:38:32;;;;;;;7.43;1.45;;;;;;;;;;5062149;28;20529;-77
2021/09/19 14:40:57;;;;;;;8.13;0.88;;;;;;;;;;5060180;28;21298;-76
2021/09/19 14:43:23;;;;;;;7.25;0.98;;;;;;;;;;5062471;28;20035;-76